sensor_id;sensor_type;location;lat;lon;timestamp;temperature;humidity
20773;DHT22;10546;50.674;4.616;2023-02-23T06:37:23;9.10;99.90
20773;DHT22;10546;50.674;4.616;2023-02-23T06:39:48;9.20;99.90
20773;DHT22;10546;50.674;4.616;2023-02-23T06:42:15;9.20;99.90
20773;DHT22;10546;50.674;4.616;2023-02-23T06:44:40;9.20;99.90
20773;DHT22;10546;50.674;4.616;2023-02-23T06:47:06;9.20;99.90
20773;DHT22;10546;50.674;4.616;2023-02-23T06:49:32;9.20;99.90
20773;DHT22;10546;50.674;4.616;2023-02-23T06:51:57;9.20;99.90
20773;DHT22;10546;50.674;4.616;2023-02-23T06:54:23;9.10;99.90
20773;DHT22;10546;50.674;4.616;2023-02-23T06:56:49;8.90;99.90
20773;DHT22;10546;50.674;4.616;2023-02-23T06:59:15;8.80;99.90
20773;DHT22;10546;50.674;4.616;2023-02-23T07:01:41;8.80;99.90
20773;DHT22;10546;50.674;4.616;2023-02-23T07:04:12;8.80;99.90
20773;DHT22;10546;50.674;4.616;2023-02-23T07:06:37;9.00;99.90
20773;DHT22;10546;50.674;4.616;2023-02-23T07:09:07;9.00;99.90
20773;DHT22;10546;50.674;4.616;2023-02-23T07:11:32;9.10;99.90
20773;DHT22;10546;50.674;4.616;2023-02-23T07:13:59;9.10;99.90
20773;DHT22;10546;50.674;4.616;2023-02-23T07:16:28;9.10;99.90
20773;DHT22;10546;50.674;4.616;2023-02-23T07:18:54;9.00;99.90
20773;DHT22;10546;50.674;4.616;2023-02-23T07:21:20;9.00;99.90
20773;DHT22;10546;50.674;4.616;2023-02-23T07:23:46;9.10;99.90
20773;DHT22;10546;50.674;4.616;2023-02-23T07:26:14;9.10;99.90
20773;DHT22;10546;50.674;4.616;2023-02-23T07:28:41;9.20;99.90
20773;DHT22;10546;50.674;4.616;2023-02-23T07:31:08;9.20;99.90
20773;DHT22;10546;50.674;4.616;2023-02-23T07:33:34;9.30;99.90
20773;DHT22;10546;50.674;4.616;2023-02-23T07:35:59;9.30;99.90
20773;DHT22;10546;50.674;4.616;2023-02-23T07:38:25;9.40;99.90
20773;DHT22;10546;50.674;4.616;2023-02-23T07:40:51;9.30;99.90
20773;DHT22;10546;50.674;4.616;2023-02-23T07:43:17;9.50;99.90
20773;DHT22;10546;50.674;4.616;2023-02-23T07:45:45;9.40;99.90
20773;DHT22;10546;50.674;4.616;2023-02-23T07:48:11;9.50;99.90
20773;DHT22;10546;50.674;4.616;2023-02-23T07:50:38;9.60;99.90
20773;DHT22;10546;50.674;4.616;2023-02-23T07:53:04;9.40;99.90
20773;DHT22;10546;50.674;4.616;2023-02-23T07:55:30;9.60;99.90
20773;DHT22;10546;50.674;4.616;2023-02-23T07:57:56;9.40;99.90
20773;DHT22;10546;50.674;4.616;2023-02-23T08:00:22;9.40;99.90
20773;DHT22;10546;50.674;4.616;2023-02-23T08:02:50;9.50;99.90
20773;DHT22;10546;50.674;4.616;2023-02-23T08:05:18;9.50;99.90
20773;DHT22;10546;50.674;4.616;2023-02-23T08:07:44;9.50;99.90
20773;DHT22;10546;50.674;4.616;2023-02-23T08:10:10;9.40;99.90
20773;DHT22;10546;50.674;4.616;2023-02-23T08:12:36;9.30;99.90
20773;DHT22;10546;50.674;4.616;2023-02-23T08:15:03;9.30;99.90
20773;DHT22;10546;50.674;4.616;2023-02-23T08:17:35;9.30;99.90
20773;DHT22;10546;50.674;4.616;2023-02-23T08:20:01;9.20;99.90
20773;DHT22;10546;50.674;4.616;2023-02-23T08:22:27;9.00;99.90
20773;DHT22;10546;50.674;4.616;2023-02-23T08:24:53;9.10;99.90
20773;DHT22;10546;50.674;4.616;2023-02-23T08:27:18;8.90;99.90
20773;DHT22;10546;50.674;4.616;2023-02-23T08:29:44;8.90;99.90
20773;DHT22;10546;50.674;4.616;2023-02-23T08:32:10;8.90;99.90
20773;DHT22;10546;50.674;4.616;2023-02-23T08:34:37;8.90;99.90
20773;DHT22;10546;50.674;4.616;2023-02-23T08:37:03;9.10;99.90
20773;DHT22;10546;50.674;4.616;2023-02-23T08:39:28;9.10;99.90
20773;DHT22;10546;50.674;4.616;2023-02-23T08:41:55;9.10;99.90
20773;DHT22;10546;50.674;4.616;2023-02-23T08:44:21;9.20;99.90
20773;DHT22;10546;50.674;4.616;2023-02-23T08:46:46;9.40;99.90
20773;DHT22;10546;50.674;4.616;2023-02-23T08:49:12;9.30;99.90
20773;DHT22;10546;50.674;4.616;2023-02-23T08:51:37;9.40;99.90
20773;DHT22;10546;50.674;4.616;2023-02-23T08:54:05;9.40;99.90
20773;DHT22;10546;50.674;4.616;2023-02-23T08:56:37;9.40;99.90
20773;DHT22;10546;50.674;4.616;2023-02-23T08:59:03;9.60;99.90
20773;DHT22;10546;50.674;4.616;2023-02-23T09:01:28;9.60;99.90
20773;DHT22;10546;50.674;4.616;2023-02-23T09:03:54;9.60;99.90
20773;DHT22;10546;50.674;4.616;2023-02-23T09:06:22;9.50;99.90
20773;DHT22;10546;50.674;4.616;2023-02-23T09:08:50;9.50;99.90
20773;DHT22;10546;50.674;4.616;2023-02-23T09:11:16;9.30;99.90
20773;DHT22;10546;50.674;4.616;2023-02-23T09:13:42;9.40;99.90
20773;DHT22;10546;50.674;4.616;2023-02-23T09:16:08;9.40;99.90
20773;DHT22;10546;50.674;4.616;2023-02-23T09:18:34;9.50;99.90
20773;DHT22;10546;50.674;4.616;2023-02-23T09:21:03;9.50;99.90
20773;DHT22;10546;50.674;4.616;2023-02-23T09:23:31;9.40;99.90
20773;DHT22;10546;50.674;4.616;2023-02-23T09:25:56;9.40;99.90
20773;DHT22;10546;50.674;4.616;2023-02-23T09:28:26;9.40;99.90
20773;DHT22;10546;50.674;4.616;2023-02-23T09:30:55;9.50;99.90
20773;DHT22;10546;50.674;4.616;2023-02-23T09:33:21;9.60;99.90
20773;DHT22;10546;50.674;4.616;2023-02-23T09:35:46;9.80;99.90
20773;DHT22;10546;50.674;4.616;2023-02-23T09:38:12;9.90;99.90
20773;DHT22;10546;50.674;4.616;2023-02-23T09:40:52;9.90;99.90
20773;DHT22;10546;50.674;4.616;2023-02-23T09:43:44;9.90;99.90
20773;DHT22;10546;50.674;4.616;2023-02-23T09:46:39;9.90;99.90
20773;DHT22;10546;50.674;4.616;2023-02-23T09:49:12;10.00;99.90
20773;DHT22;10546;50.674;4.616;2023-02-23T09:51:44;10.00;99.90
20773;DHT22;10546;50.674;4.616;2023-02-23T09:54:12;10.00;99.90
20773;DHT22;10546;50.674;4.616;2023-02-23T09:56:44;10.00;99.90
20773;DHT22;10546;50.674;4.616;2023-02-23T09:59:13;10.10;99.90
20773;DHT22;10546;50.674;4.616;2023-02-23T10:07:12;9.90;99.90
20773;DHT22;10546;50.674;4.616;2023-02-23T10:09:58;10.10;99.90
20773;DHT22;10546;50.674;4.616;2023-02-23T10:12:34;10.30;99.90
20773;DHT22;10546;50.674;4.616;2023-02-23T10:15:25;10.40;99.90
20773;DHT22;10546;50.674;4.616;2023-02-23T10:20:38;10.40;99.90
20773;DHT22;10546;50.674;4.616;2023-02-23T10:23:13;10.40;99.90
20773;DHT22;10546;50.674;4.616;2023-02-23T10:25:46;10.50;99.90
20773;DHT22;10546;50.674;4.616;2023-02-23T10:28:16;10.40;99.90
20773;DHT22;10546;50.674;4.616;2023-02-23T10:30:43;10.60;99.90
20773;DHT22;10546;50.674;4.616;2023-02-23T10:33:30;10.60;99.90
20773;DHT22;10546;50.674;4.616;2023-02-23T10:36:04;10.70;99.90
20773;DHT22;10546;50.674;4.616;2023-02-23T10:38:34;10.60;99.90
20773;DHT22;10546;50.674;4.616;2023-02-23T10:41:00;10.40;99.90
20773;DHT22;10546;50.674;4.616;2023-02-23T10:43:28;10.30;99.90
20773;DHT22;10546;50.674;4.616;2023-02-23T10:45:54;10.20;99.90
20773;DHT22;10546;50.674;4.616;2023-02-23T10:48:27;10.30;99.90
20773;DHT22;10546;50.674;4.616;2023-02-23T10:50:56;10.20;99.90
20773;DHT22;10546;50.674;4.616;2023-02-23T10:53:31;10.20;99.90
20773;DHT22;10546;50.674;4.616;2023-02-23T10:56:14;10.30;99.90
20773;DHT22;10546;50.674;4.616;2023-02-23T10:58:50;10.50;99.90
20773;DHT22;10546;50.674;4.616;2023-02-23T11:03:56;10.70;99.90
20773;DHT22;10546;50.674;4.616;2023-02-23T11:06:37;10.80;99.90
20773;DHT22;10546;50.674;4.616;2023-02-23T11:09:29;10.90;99.90
20773;DHT22;10546;50.674;4.616;2023-02-23T11:11:57;10.60;99.90
20773;DHT22;10546;50.674;4.616;2023-02-23T11:14:25;10.60;99.90
20773;DHT22;10546;50.674;4.616;2023-02-23T11:16:52;10.60;99.90
20773;DHT22;10546;50.674;4.616;2023-02-23T11:19:36;10.70;99.90
20773;DHT22;10546;50.674;4.616;2023-02-23T11:22:03;10.70;99.90
20773;DHT22;10546;50.674;4.616;2023-02-23T11:24:35;10.50;99.90
20773;DHT22;10546;50.674;4.616;2023-02-23T11:27:04;10.20;99.90
20773;DHT22;10546;50.674;4.616;2023-02-23T11:29:42;10.00;99.90
20773;DHT22;10546;50.674;4.616;2023-02-23T11:32:17;9.90;99.90
20773;DHT22;10546;50.674;4.616;2023-02-23T11:34:45;9.70;99.90
20773;DHT22;10546;50.674;4.616;2023-02-23T11:39:53;10.00;99.90
20773;DHT22;10546;50.674;4.616;2023-02-23T11:42:21;9.80;99.90
20773;DHT22;10546;50.674;4.616;2023-02-23T11:45:14;9.90;99.90
20773;DHT22;10546;50.674;4.616;2023-02-23T11:47:44;9.90;99.90
20773;DHT22;10546;50.674;4.616;2023-02-23T11:50:29;9.90;99.90
20773;DHT22;10546;50.674;4.616;2023-02-23T11:53:13;9.90;99.90
20773;DHT22;10546;50.674;4.616;2023-02-23T11:55:48;10.00;99.90
20773;DHT22;10546;50.674;4.616;2023-02-23T11:58:26;10.10;99.90
20773;DHT22;10546;50.674;4.616;2023-02-23T12:00:58;10.20;99.90
20773;DHT22;10546;50.674;4.616;2023-02-23T12:03:25;10.30;99.90
20773;DHT22;10546;50.674;4.616;2023-02-23T12:05:56;10.40;99.90
20773;DHT22;10546;50.674;4.616;2023-02-23T12:08:49;10.50;99.90
20773;DHT22;10546;50.674;4.616;2023-02-23T12:11:21;10.10;99.90
20773;DHT22;10546;50.674;4.616;2023-02-23T12:14:07;10.00;99.90
20773;DHT22;10546;50.674;4.616;2023-02-23T12:16:49;10.00;99.90
20773;DHT22;10546;50.674;4.616;2023-02-23T12:19:27;10.10;99.90
20773;DHT22;10546;50.674;4.616;2023-02-23T12:22:15;10.20;99.90
20773;DHT22;10546;50.674;4.616;2023-02-23T12:27:18;10.40;99.90
20773;DHT22;10546;50.674;4.616;2023-02-23T12:32:55;10.50;99.90
20773;DHT22;10546;50.674;4.616;2023-02-23T12:35:26;10.50;99.90
20773;DHT22;10546;50.674;4.616;2023-02-23T12:40:45;10.80;99.90
20773;DHT22;10546;50.674;4.616;2023-02-23T12:43:26;10.90;99.90
20773;DHT22;10546;50.674;4.616;2023-02-23T12:46:10;10.90;99.90
20773;DHT22;10546;50.674;4.616;2023-02-23T12:51:53;11.10;99.90
20773;DHT22;10546;50.674;4.616;2023-02-23T12:54:19;11.10;99.90
20773;DHT22;10546;50.674;4.616;2023-02-23T13:02:49;10.70;99.90
20773;DHT22;10546;50.674;4.616;2023-02-23T13:05:48;10.50;99.90
20773;DHT22;10546;50.674;4.616;2023-02-23T13:14:10;10.60;99.90
20773;DHT22;10546;50.674;4.616;2023-02-23T13:16:46;10.70;99.90
20773;DHT22;10546;50.674;4.616;2023-02-23T13:19:21;10.70;99.90
20773;DHT22;10546;50.674;4.616;2023-02-23T13:21:50;10.60;99.90
20773;DHT22;10546;50.674;4.616;2023-02-23T13:24:22;10.60;99.90
20773;DHT22;10546;50.674;4.616;2023-02-23T13:26:50;10.80;99.90
20773;DHT22;10546;50.674;4.616;2023-02-23T13:29:44;10.50;99.90
20773;DHT22;10546;50.674;4.616;2023-02-23T13:32:16;10.60;99.90
20773;DHT22;10546;50.674;4.616;2023-02-23T13:35:03;10.80;99.90
20773;DHT22;10546;50.674;4.616;2023-02-23T13:37:38;10.90;99.90
20773;DHT22;10546;50.674;4.616;2023-02-23T13:51:46;10.40;99.90
20773;DHT22;10546;50.674;4.616;2023-02-23T13:56:56;10.60;99.90
20773;DHT22;10546;50.674;4.616;2023-02-23T13:59:25;10.60;99.90
20773;DHT22;10546;50.674;4.616;2023-02-23T14:01:54;10.60;99.90
20773;DHT22;10546;50.674;4.616;2023-02-23T14:07:15;10.70;99.90
20773;DHT22;10546;50.674;4.616;2023-02-23T14:12:37;10.90;99.90
20773;DHT22;10546;50.674;4.616;2023-02-23T14:25:51;10.70;99.90
20773;DHT22;10546;50.674;4.616;2023-02-23T14:36:27;11.20;99.90
20773;DHT22;10546;50.674;4.616;2023-02-23T14:39:00;11.30;99.90
20773;DHT22;10546;50.674;4.616;2023-02-23T14:41:45;11.30;99.90
20773;DHT22;10546;50.674;4.616;2023-02-23T14:49:27;11.10;99.90
20773;DHT22;10546;50.674;4.616;2023-02-23T14:51:58;11.00;99.90
20773;DHT22;10546;50.674;4.616;2023-02-23T14:54:39;10.90;99.90
20773;DHT22;10546;50.674;4.616;2023-02-23T14:59:49;10.40;99.90
20773;DHT22;10546;50.674;4.616;2023-02-23T15:02:19;10.30;99.90
20773;DHT22;10546;50.674;4.616;2023-02-23T15:04:45;10.20;99.90
20773;DHT22;10546;50.674;4.616;2023-02-23T15:09:56;10.30;99.90
20773;DHT22;10546;50.674;4.616;2023-02-23T15:12:25;10.30;99.90
20773;DHT22;10546;50.674;4.616;2023-02-23T15:14:55;10.40;99.90
20773;DHT22;10546;50.674;4.616;2023-02-23T15:17:25;10.30;99.90
20773;DHT22;10546;50.674;4.616;2023-02-23T15:19:58;10.20;99.90
20773;DHT22;10546;50.674;4.616;2023-02-23T15:22:32;10.00;99.90
20773;DHT22;10546;50.674;4.616;2023-02-23T15:25:00;10.10;99.90
20773;DHT22;10546;50.674;4.616;2023-02-23T15:27:37;10.10;99.90
20773;DHT22;10546;50.674;4.616;2023-02-23T15:30:26;10.20;99.90
20773;DHT22;10546;50.674;4.616;2023-02-23T15:33:05;10.30;99.90
20773;DHT22;10546;50.674;4.616;2023-02-23T15:38:48;10.20;99.90
20773;DHT22;10546;50.674;4.616;2023-02-23T15:41:45;10.30;99.90
20773;DHT22;10546;50.674;4.616;2023-02-23T15:44:32;10.30;99.90
20773;DHT22;10546;50.674;4.616;2023-02-23T15:47:47;10.40;99.90
20773;DHT22;10546;50.674;4.616;2023-02-23T15:51:04;10.40;99.90
20773;DHT22;10546;50.674;4.616;2023-02-23T15:54:30;10.30;99.90
20773;DHT22;10546;50.674;4.616;2023-02-23T15:57:51;10.30;99.90
20773;DHT22;10546;50.674;4.616;2023-02-23T16:01:01;10.20;99.90
20773;DHT22;10546;50.674;4.616;2023-02-23T16:03:58;10.30;99.90
20773;DHT22;10546;50.674;4.616;2023-02-23T16:10:46;10.10;99.90
20773;DHT22;10546;50.674;4.616;2023-02-23T16:17:52;10.20;99.90
20773;DHT22;10546;50.674;4.616;2023-02-23T16:20:56;10.10;99.90
20773;DHT22;10546;50.674;4.616;2023-02-23T16:24:18;10.30;99.90
20773;DHT22;10546;50.674;4.616;2023-02-23T16:27:09;10.30;99.90
20773;DHT22;10546;50.674;4.616;2023-02-23T16:33:44;10.20;99.90
20773;DHT22;10546;50.674;4.616;2023-02-23T16:37:21;10.20;99.90
20773;DHT22;10546;50.674;4.616;2023-02-23T16:40:19;10.30;99.90
20773;DHT22;10546;50.674;4.616;2023-02-23T16:42:56;10.50;99.90
20773;DHT22;10546;50.674;4.616;2023-02-23T16:45:25;10.50;99.90
20773;DHT22;10546;50.674;4.616;2023-02-23T16:48:12;10.40;99.90
20773;DHT22;10546;50.674;4.616;2023-02-23T16:50:59;10.40;99.90
20773;DHT22;10546;50.674;4.616;2023-02-23T16:57:27;10.10;99.90
20773;DHT22;10546;50.674;4.616;2023-02-23T17:00:32;10.00;99.90
20773;DHT22;10546;50.674;4.616;2023-02-23T17:02:58;10.00;99.90
20773;DHT22;10546;50.674;4.616;2023-02-23T17:05:53;9.90;99.90
20773;DHT22;10546;50.674;4.616;2023-02-23T17:08:19;10.00;99.90
20773;DHT22;10546;50.674;4.616;2023-02-23T17:11:05;10.00;99.90
20773;DHT22;10546;50.674;4.616;2023-02-23T17:13:54;10.00;99.90
20773;DHT22;10546;50.674;4.616;2023-02-23T17:16:46;10.00;99.90
20773;DHT22;10546;50.674;4.616;2023-02-23T17:22:23;10.20;99.90
20773;DHT22;10546;50.674;4.616;2023-02-23T17:24:50;10.50;99.90
20773;DHT22;10546;50.674;4.616;2023-02-23T17:27:17;10.40;99.90
20773;DHT22;10546;50.674;4.616;2023-02-23T17:29:51;10.40;99.90
20773;DHT22;10546;50.674;4.616;2023-02-23T17:33:01;10.30;99.90
20773;DHT22;10546;50.674;4.616;2023-02-23T17:35:46;10.40;99.90
20773;DHT22;10546;50.674;4.616;2023-02-23T17:38:38;10.50;99.90
20773;DHT22;10546;50.674;4.616;2023-02-23T17:49:04;10.30;99.90
20773;DHT22;10546;50.674;4.616;2023-02-23T17:55:55;10.50;99.90
20773;DHT22;10546;50.674;4.616;2023-02-23T17:59:05;10.40;99.90
20773;DHT22;10546;50.674;4.616;2023-02-23T18:02:13;10.60;99.90
20773;DHT22;10546;50.674;4.616;2023-02-23T18:08:54;10.00;99.90
20773;DHT22;10546;50.674;4.616;2023-02-23T18:11:43;9.50;99.90
20773;DHT22;10546;50.674;4.616;2023-02-23T18:14:27;9.40;99.90
20773;DHT22;10546;50.674;4.616;2023-02-23T18:18:04;9.20;99.90
20773;DHT22;10546;50.674;4.616;2023-02-23T18:21:33;9.00;99.90
20773;DHT22;10546;50.674;4.616;2023-02-23T18:31:00;9.00;99.90
20773;DHT22;10546;50.674;4.616;2023-02-23T18:34:08;9.10;99.90
20773;DHT22;10546;50.674;4.616;2023-02-23T18:40:42;9.10;99.90
20773;DHT22;10546;50.674;4.616;2023-02-23T18:44:15;9.00;99.90
20773;DHT22;10546;50.674;4.616;2023-02-23T18:47:15;9.00;99.90
20773;DHT22;10546;50.674;4.616;2023-02-23T18:50:13;9.00;99.90
20773;DHT22;10546;50.674;4.616;2023-02-23T18:59:46;8.90;99.90
20773;DHT22;10546;50.674;4.616;2023-02-23T19:02:58;9.10;99.90
20773;DHT22;10546;50.674;4.616;2023-02-23T19:05:27;9.30;99.90
20773;DHT22;10546;50.674;4.616;2023-02-23T19:11:58;9.30;99.90
20773;DHT22;10546;50.674;4.616;2023-02-23T19:15:14;9.30;99.90
20773;DHT22;10546;50.674;4.616;2023-02-23T19:18:23;9.30;99.90
20773;DHT22;10546;50.674;4.616;2023-02-23T19:21:28;9.20;99.90
20773;DHT22;10546;50.674;4.616;2023-02-23T19:27:57;9.30;99.90
20773;DHT22;10546;50.674;4.616;2023-02-23T19:37:50;9.40;99.90
20773;DHT22;10546;50.674;4.616;2023-02-23T19:44:23;9.40;99.90
20773;DHT22;10546;50.674;4.616;2023-02-23T19:47:30;9.40;99.90
20773;DHT22;10546;50.674;4.616;2023-02-23T19:50:22;9.40;99.90
20773;DHT22;10546;50.674;4.616;2023-02-23T19:57:37;9.20;99.90
20773;DHT22;10546;50.674;4.616;2023-02-23T20:00:19;9.30;99.90
20773;DHT22;10546;50.674;4.616;2023-02-23T20:03:49;9.20;99.90
20773;DHT22;10546;50.674;4.616;2023-02-23T20:07:20;9.20;99.90
20773;DHT22;10546;50.674;4.616;2023-02-23T20:10:07;9.10;99.90
20773;DHT22;10546;50.674;4.616;2023-02-23T20:19:36;9.40;99.90
20773;DHT22;10546;50.674;4.616;2023-02-23T20:22:11;9.30;99.90
20773;DHT22;10546;50.674;4.616;2023-02-23T20:25:32;9.30;99.90
20773;DHT22;10546;50.674;4.616;2023-02-23T20:28:12;9.10;99.90
20773;DHT22;10546;50.674;4.616;2023-02-23T20:31:44;9.20;99.90
20773;DHT22;10546;50.674;4.616;2023-02-23T20:41:29;9.30;99.90
20773;DHT22;10546;50.674;4.616;2023-02-23T20:44:33;9.50;99.90
20773;DHT22;10546;50.674;4.616;2023-02-23T20:57:20;9.10;99.90
20773;DHT22;10546;50.674;4.616;2023-02-23T20:59:47;9.30;99.90
20773;DHT22;10546;50.674;4.616;2023-02-23T21:02:47;9.30;99.90
20773;DHT22;10546;50.674;4.616;2023-02-23T21:06:10;9.20;99.90
20773;DHT22;10546;50.674;4.616;2023-02-23T21:26:15;9.60;99.90
20773;DHT22;10546;50.674;4.616;2023-02-23T21:29:27;9.60;99.90
20773;DHT22;10546;50.674;4.616;2023-02-23T21:32:24;9.60;99.90
20773;DHT22;10546;50.674;4.616;2023-02-23T21:38:45;9.80;99.90
20773;DHT22;10546;50.674;4.616;2023-02-23T21:41:15;9.80;99.90
20773;DHT22;10546;50.674;4.616;2023-02-23T21:44:31;9.90;99.90
20773;DHT22;10546;50.674;4.616;2023-02-23T21:47:41;9.80;99.90
20773;DHT22;10546;50.674;4.616;2023-02-23T21:51:00;9.70;99.90
20773;DHT22;10546;50.674;4.616;2023-02-23T22:00:00;9.50;99.90
20773;DHT22;10546;50.674;4.616;2023-02-23T22:02:52;9.40;99.90
20773;DHT22;10546;50.674;4.616;2023-02-23T22:09:38;8.10;99.90
20773;DHT22;10546;50.674;4.616;2023-02-23T22:12:04;7.80;99.90
20773;DHT22;10546;50.674;4.616;2023-02-23T22:14:33;7.60;99.90
20773;DHT22;10546;50.674;4.616;2023-02-23T22:16:59;7.60;99.90
20773;DHT22;10546;50.674;4.616;2023-02-23T22:19:53;7.70;99.90
20773;DHT22;10546;50.674;4.616;2023-02-23T22:22:46;7.60;99.90
20773;DHT22;10546;50.674;4.616;2023-02-23T22:25:16;7.70;99.90
20773;DHT22;10546;50.674;4.616;2023-02-23T22:28:06;7.50;99.90
